Список аэропортов
Фактическая погода:

23 апреля, 12:00
Температура: +24°C (+24.0*)
Ветер: юго-восточный 9 м/с
Давление: *746 мм
неб. кучево-дождевые 1500 м
Время (МСК)Темп. СВетерВлажностьДавлениеОблачностьОсадки
09:00+16ЮЗ, 1 м/с71%1002 гПаоблачно
10:00+19ЮВ, 5 м/с58%1000 гПаоблачнодождь
11:00+24ЮВ, 12 м/с33%998 гПаоблачносл. дождь
12:00+26ЮВ, 13 м/с29%996 гПаоблачно
13:00+25ЮВ, 15 м/с29%995 гПаоблачно
14:00+25ЮВ, 14 м/с29%993 гПаоблачно
15:00+20ЮЗ, 17 м/с48%995 гПас прояснениями
16:00+13В, 2 м/с79%999 гПаоблачнодождь
17:00+12ЮЗ, 5 м/с82%1002 гПаоблачнодождь
18:00+12Ю, 2 м/с86%1003 гПаоблачнодождь
19:00+11ЮЗ, 7 м/с85%1005 гПаоблачнодождь
20:00+10ЮЗ, 10 м/с82%1008 гПаоблачнодождь
21:00+8З, 9 м/с84%1011 гПаоблачнодождь
22:00+8ЮЗ, 7 м/с82%1013 гПаоблачнодождь
23:00+8ЮЗ, 6 м/с80%1013 гПаоблачнодождь
24 апреля
00:00+8ЮЗ, 6 м/с80%1014 гПаоблачнодождь
01:00+8ЮЗ, 5 м/с81%1014 гПаоблачнодождь
02:00+8ЮЗ, 5 м/с81%1014 гПаоблачнодождь
03:00+8ЮЗ, 5 м/с78%1015 гПаоблачнодождь
04:00+8Ю, 4 м/с79%1015 гПаоблачнодождь
05:00+8Ю, 4 м/с79%1016 гПаоблачнодождь
06:00+8ЮВ, 5 м/с79%1016 гПаоблачнодождь
07:00+8ЮВ, 5 м/с79%1016 гПаоблачнодождь
08:00+9ЮВ, 6 м/с80%1016 гПаоблачнодождь
09:00+9ЮВ, 6 м/с80%1016 гПаоблачнодождь
10:00+9ЮВ, 6 м/с80%1017 гПаоблачнодождь
11:00+10ЮВ, 7 м/с79%1017 гПаоблачносл. дождь
12:00+10ЮВ, 7 м/с78%1017 гПаоблачносл. дождь
13:00+10ЮВ, 8 м/с77%1017 гПаоблачнодождь
14:00+10Ю, 8 м/с76%1017 гПаоблачнодождь
15:00+10Ю, 7 м/с77%1017 гПаоблачнодождь
16:00+10Ю, 6 м/с73%1018 гПаоблачнодождь
17:00+10ЮЗ, 3 м/с74%1018 гПаоблачнодождь
18:00+10Ю, 3 м/с76%1018 гПаоблачносл. дождь
19:00+9Ю, 2 м/с83%1019 гПаоблачнодождь
20:00+9Ю, 1 м/с87%1019 гПаоблачнодождь
21:00+8ЮЗ, 2 м/с86%1020 гПаоблачнодождь
22:00+8Ю, 1 м/с89%1021 гПаоблачнодождь
23:00+8Ю, 2 м/с90%1021 гПаоблачнодождь
25 апреля
00:00+8ЮЗ, 3 м/с89%1022 гПаоблачнодождь
01:00+8ЮЗ, 4 м/с87%1022 гПаоблачнодождь
02:00+8ЮЗ, 3 м/с88%1023 гПаоблачнодождь
03:00+7ЮЗ, 1 м/с91%1023 гПаоблачнодождь
04:00+7В, 1 м/с91%1024 гПаоблачнодождь
05:00+6В, 2 м/с91%1025 гПас прояснениямидождь
06:00+6В, 2 м/с90%1026 гПас прояснениямисл. дождь
07:00+8ЮВ, 2 м/с86%1026 гПамалооблачно
08:00+9Ю, 2 м/с79%1026 гПас прояснениями
09:00+10Ю, 3 м/с75%1027 гПас прояснениями